Blackduck, Minnesota
Current Conditions -  °F | °C
As of 11:54 AM on Sunday 21 Dec 2014 (Local Time) from KBJI Reporting Station
Haze Haze  
Wind Chill: 21°   Ceiling: 600
Heat Index: 30°   Visibility: 5mi
Dew Point: 28°   Wind: 12mph
Humidity: 93%   Direction: 160°SSE
Pressure: 29.7"   Gusts: 20mph
Location:  47.73°N, 94.55°W
Report Text: KBJI 211754Z AUTO 16010G17KT 5SM BR OVC006 M01/M02 A2970 RMK AO2 T10101020
Loading
Personal Weather Stations






























Interactive Weather Map New forecast layout! Learn more

10-Day Weather Forecast

Advertisements
Track Severe Weather on mobile